• Join FlightAware (Why Join?)
  • Login
  • US Flag 
07:25AM EDT


 

Airport Tracker/Info


-or-


 

Live Flight TrackerFlight Track Log ✈ N552XJ ✈ 30-Apr-2013 ✈ KSGR - KCRQ

Flight Track Log - Related Links

Times and Time Zones

All times are in EDT time to prevent confusion due to time zone crossing. See the N552XJ flight status page for this flight to view local times or setup timezone preferences in your user account.

Time Position Orientation Groundspeed Altitude Reporting Facility
EDT Latitude Longitude Course Direction KTS MPH feet Rate Location/Type
04:47PM 29.5503 -95.6692 189° South 214 246 2,600  Level Houston Center
04:48PM 29.5481 -95.6928 264° West 211 243 3,400 3,300 Climbing Houston Center
04:48PM 29.5708 -95.7364 301° West 221 254 6,400 4,140 Climbing Houston Center
04:49PM 29.5814 -95.7489 314° West 216 249 7,700 4,080 Climbing Houston Center
04:49PM 29.6139 -95.7939 310° West 234 269 10,600 3,540 Climbing Houston Center
04:50PM 29.6244 -95.8069 313° West 237 273 11,400 2,880 Climbing Houston Center
04:51PM 29.6803 -95.8778 312° West 297 342 14,600 3,000 Climbing Houston Center
04:52PM 29.7406 -95.9575 311° West 325 374 17,600 3,060 Climbing Houston Center
04:53PM 29.8161 -96.0522 313° West 360 414 21,000 3,120 Climbing Houston Center
04:54PM 29.8828 -96.1400 311° West 365 420 24,200 2,460 Climbing Houston Center
04:55PM 29.9172 -96.2575 289° West 399 459 26,200 1,980 Climbing Houston Center
04:56PM 29.9533 -96.4114 285° West 420 483 28,400 1,920 Climbing Houston Center
04:57PM 29.9844 -96.5447 285° West 433 498 30,200 1,740 Climbing Houston Center
04:58PM 30.0158 -96.6817 285° West 443 510 32,000 1,740 Climbing Houston Center
04:59PM 30.0472 -96.8194 285° West 446 513 33,800 1,740 Climbing Houston Center
05:00PM 30.0775 -96.9558 284° West 443 510 35,600 1,860 Climbing Houston Center
05:01PM 30.1136 -97.1131 285° West 435 501 37,700 1,920 Climbing Houston Center
05:02PM 30.1422 -97.2450 284° West 420 483 39,600 1,740 Climbing Houston Center
05:03PM 30.1706 -97.3714 285° West 405 466 41,400 1,080 Climbing Houston Center
05:04PM 30.1972 -97.4933 284° West 390 449 41,900 360 Climbing Houston Center
05:05PM 30.2258 -97.6225 284° West 404 465 42,200 360 Climbing Houston Center
05:06PM 30.2556 -97.7525 285° West 411 473 42,700 360 Climbing Houston Center
05:07PM 30.2881 -97.9017 284° West 418 481 43,000 120 Climbing Houston Center
05:08PM 30.3167 -98.0333 284° West 422 486 43,000  Level Houston Center
05:09PM 30.3475 -98.1767 284° West 429 494 43,000  Level Houston Center
05:10PM 30.3764 -98.3133 284° West 433 498 43,000  Level Houston Center
05:11PM 30.4061 -98.4511 284° West 435 501 43,000  Level Houston Center
05:13PM 30.4350 -98.5878 284° West 433 498 43,000  Level Houston Center
05:14PM 30.4644 -98.7244 284° West 431 496 43,000  Level Houston Center
05:15PM 30.4928 -98.8611 284° West 432 497 43,000  Level Houston Center
05:16PM 30.5228 -98.9989 284° West 435 501 43,000  Level Houston Center
05:17PM 30.5539 -99.1467 284° West 434 499 43,000  Level Houston Center
05:18PM 30.5819 -99.2819 284° West 433 498 43,000  Level Houston Center
05:19PM 30.6100 -99.4161 284° West 431 496 43,000  Level Houston Center
05:20PM 30.6378 -99.5517 283° West 435 501 43,000  Level Houston Center
05:21PM 30.6700 -99.7117 283° West 428 493 43,000  Level Houston Center
05:22PM 30.6969 -99.8464 283° West 430 495 43,000  Level Houston Center
05:23PM 30.7236 -99.9803 283° West 437 503 43,000  Level Houston Center
05:24PM 30.7508 -100.1153 283° West 435 501 43,000  Level Houston Center
05:25PM 30.7764 -100.2506 282° West 433 498 43,000  Level Houston Center
05:26PM 30.8097 -100.4122 284° West 430 495 43,000  Level Houston Center
05:27PM 30.8361 -100.5483 283° West 433 498 43,000  Level Houston Center
05:28PM 30.8614 -100.6867 282° West 438 504 43,000  Level Houston Center
05:29PM 30.8881 -100.8192 283° West 428 493 43,000 -60 Level Houston Center
05:30PM 30.9156 -100.9561 283° West 433 498 42,900  Descending Houston Center
05:31PM 30.9461 -101.1233 282° West 442 509 43,000  Climbing Houston Center
05:32PM 30.9742 -101.2539 284° West 424 488 43,000  Level Houston Center
05:33PM 30.9950 -101.3789 281° West 429 494 43,000  Level Houston Center
05:34PM 31.0106 -101.4608 283° West 433 498 43,000  Level Albuquerque Center
05:35PM 31.0369 -101.5967 283° West 432 497 43,000  Level Albuquerque Center
05:36PM 31.0614 -101.7331 282° West 430 495 43,000  Level Albuquerque Center
05:37PM 31.0867 -101.8703 282° West 433 498 43,000  Level Albuquerque Center
05:38PM 31.1142 -102.0325 281° West 435 501 43,000  Level Albuquerque Center
05:39PM 31.1403 -102.1694 283° West 437 503 43,000  Level Albuquerque Center
05:40PM 31.1650 -102.3083 282° West 437 503 43,000  Level Albuquerque Center
05:41PM 31.1897 -102.4464 282° West 436 502 43,000  Level Albuquerque Center
05:42PM 31.2153 -102.5953 281° West 430 495 43,000  Level Albuquerque Center
05:43PM 31.2408 -102.7331 282° West 432 497 43,000  Level Albuquerque Center
05:44PM 31.2653 -102.8733 282° West 437 503 43,000  Level Albuquerque Center
05:45PM 31.2889 -103.0114 281° West 435 501 43,000  Level Albuquerque Center
05:46PM 31.3136 -103.1503 282° West 437 503 43,000  Level Albuquerque Center
05:47PM 31.3417 -103.3183 281° West 438 504 43,000  Level Albuquerque Center
05:48PM 31.3658 -103.4575 282° West 438 504 43,000  Level Albuquerque Center
05:49PM 31.3886 -103.5964 281° West 437 503 43,000  Level Albuquerque Center
05:50PM 31.4125 -103.7347 281° West 435 501 43,000  Level Albuquerque Center
05:51PM 31.4389 -103.8825 282° West 437 503 43,000  Level Albuquerque Center
05:52PM 31.4617 -104.0203 281° West 435 501 43,000  Level Albuquerque Center
05:53PM 31.4850 -104.1578 281° West 433 498 43,000  Level Albuquerque Center
05:54PM 31.5072 -104.2956 281° West 433 498 43,000  Level Albuquerque Center
05:55PM 31.5336 -104.4594 281° West 431 496 43,000  Level Albuquerque Center
05:56PM 31.5569 -104.5967 281° West 431 496 43,000  Level Albuquerque Center
05:57PM 31.5800 -104.7347 281° West 433 498 43,000  Level Albuquerque Center
05:58PM 31.6006 -104.8731 280° West 434 499 43,000  Level Albuquerque Center
06:00PM 31.6233 -105.0106 281° West 433 498 43,000  Level Albuquerque Center
06:01PM 31.6497 -105.1764 281° West 433 498 43,000  Level Albuquerque Center
06:02PM 31.6703 -105.3142 280° West 432 497 43,000  Level Albuquerque Center
06:03PM 31.6925 -105.4533 281° West 434 499 43,000  Level Albuquerque Center
06:04PM 31.7125 -105.5914 280° West 432 497 43,000  Level Albuquerque Center
06:05PM 31.7333 -105.7297 280° West 432 497 43,000  Level Albuquerque Center
06:06PM 31.7547 -105.8672 280° West 431 496 43,000  Level Albuquerque Center
06:07PM 31.7797 -106.0336 280° West 432 497 43,000  Level Albuquerque Center
06:08PM 31.8011 -106.1714 280° West 431 496 43,000  Level Albuquerque Center
06:09PM 31.8231 -106.3111 281° West 435 501 43,000  Level Albuquerque Center
06:10PM 31.8433 -106.4503 280° West 435 501 43,000  Level Albuquerque Center
06:11PM 31.8622 -106.5858 279° West 436 502 43,000  Level Albuquerque Center
06:12PM 31.8875 -106.7525 280° West 431 496 43,000  Level Albuquerque Center
06:13PM 31.9081 -106.8925 280° West 432 497 43,000  Level Albuquerque Center
06:14PM 31.9278 -107.0328 279° West 433 498 43,000  Level Albuquerque Center
06:15PM 31.9467 -107.1739 279° West 434 499 43,000  Level Albuquerque Center
06:16PM 31.9664 -107.3125 280° West 430 495 43,000  Level Albuquerque Center
06:17PM 31.9856 -107.4547 279° West 433 498 43,000  Level Albuquerque Center
06:18PM 32.0047 -107.5928 279° West 430 495 43,000  Level Albuquerque Center
06:19PM 32.0225 -107.7303 279° West 426 490 43,000  Level Albuquerque Center
06:20PM 32.0467 -107.8997 280° West 432 497 43,000  Level Albuquerque Center
06:21PM 32.0653 -108.0400 279° West 432 497 43,000  Level Albuquerque Center
06:22PM 32.0836 -108.1736 279° West 429 494 43,000  Level Albuquerque Center
06:23PM 32.1014 -108.3119 279° West 429 494 43,000  Level Albuquerque Center
06:24PM 32.1322 -108.4467 285° West 432 497 43,000  Level Albuquerque Center
06:25PM 32.1817 -108.6050 290° West 433 498 43,000  Level Albuquerque Center
06:26PM 32.2217 -108.7372 290° West 431 496 43,000  Level Albuquerque Center
06:27PM 32.2636 -108.8692 291° West 432 497 43,000  Level Albuquerque Center
06:28PM 32.3039 -109.0033 290° West 433 498 43,000  Level Albuquerque Center
06:29PM 32.3442 -109.1350 290° West 431 496 43,000  Level Albuquerque Center
06:30PM 32.3842 -109.2686 290° West 432 497 43,000  Level Albuquerque Center
06:32PM 32.4336 -109.4303 290° West 435 501 43,000  Level Albuquerque Center
06:33PM 32.4736 -109.5647 289° West 436 502 43,000  Level Albuquerque Center
06:34PM 32.5139 -109.7003 289° West 438 504 43,000  Level Albuquerque Center
06:35PM 32.5578 -109.8389 291° West 447 514 43,000  Level Albuquerque Center
06:36PM 32.5972 -109.9742 289° West 440 506 43,000  Level Albuquerque Center
06:37PM 32.6464 -110.1364 290° West 439 505 43,000  Level Albuquerque Center
06:38PM 32.6861 -110.2733 289° West 440 506 43,000  Level Albuquerque Center
06:39PM 32.7258 -110.4075 289° West 438 504 43,000  Level Albuquerque Center
06:40PM 32.7661 -110.5431 289° West 438 504 43,000  Level Albuquerque Center
06:41PM 32.8028 -110.6717 289° West 438 504 43,000  Level Albuquerque Center
06:42PM 32.8506 -110.8369 289° West 440 506 43,000  Level Albuquerque Center
06:43PM 32.8903 -110.9753 289° West 441 507 43,000  Level Albuquerque Center
06:44PM 32.9297 -111.1100 289° West 432 497 43,000  Level Albuquerque Center
06:45PM 32.9689 -111.2467 289° West 434 499 43,000  Level Albuquerque Center
06:46PM 33.0078 -111.3850 289° West 439 505 43,000  Level Albuquerque Center
06:47PM 33.0467 -111.5233 289° West 440 506 43,000 -360 Level Albuquerque Center
06:48PM 33.0844 -111.6589 288° West 432 497 42,300 -840 Descending Albuquerque Center
06:49PM 33.1292 -111.8211 288° West 430 495 41,400 -840 Descending Albuquerque Center
06:50PM 33.1678 -111.9617 288° West 441 507 40,600 -720 Descending Albuquerque Center
06:51PM 33.2069 -112.1061 288° West 451 519 40,000 -300 Descending Albuquerque Center
06:52PM 33.2456 -112.2450 288° West 446 513 40,000  Level Albuquerque Center
06:53PM 33.2822 -112.3822 288° West 436 502 40,000  Level Albuquerque Center
06:54PM 33.3142 -112.5281 285° West 455 524 40,000  Level Albuquerque Center
06:55PM 33.2975 -112.6708 262° West 460 529 40,000  Level Albuquerque Center
06:56PM 33.2522 -112.8431 253° West 459 528 40,000  Level Albuquerque Center
06:57PM 33.1867 -112.9744 239° Southwest 462 532 40,000  Level Albuquerque Center
06:58PM 33.1192 -113.1039 238° Southwest 463 533 40,000  Level Albuquerque Center
06:59PM 33.0522 -113.2344 239° Southwest 465 535 40,000  Level Albuquerque Center
07:00PM 32.9844 -113.3653 238° Southwest 467 537 40,000 -60 Level Albuquerque Center
07:01PM 32.9167 -113.4969 239° Southwest 468 539 39,900  Descending Albuquerque Center
07:02PM 32.8367 -113.6564 239° Southwest 470 541 40,000  Climbing Albuquerque Center
07:03PM 32.8133 -113.8072 260° West 470 541 40,000  Level Albuquerque Center
07:04PM 32.8086 -113.9611 268° West 466 536 40,000 -60 Level Albuquerque Center
07:05PM 32.8042 -114.1136 268° West 466 536 39,900 -60 Descending Albuquerque Center
07:06PM 32.8006 -114.2156 268° West 465 535 39,900 -120 Level Los Angeles Center
07:07PM 32.7944 -114.3989 268° West 463 533 39,700 -540 Descending Los Angeles Center
07:08PM 32.7869 -114.5478 267° West 453 521 38,900 -780 Descending Los Angeles Center
07:09PM 32.7833 -114.6961 268° West 450 518 38,100 -780 Descending Los Angeles Center
07:10PM 32.7767 -114.8481 267° West 460 529 37,300 -900 Descending Los Angeles Center
07:11PM 32.7714 -115.0028 268° West 468 539 36,300 -960 Descending Los Angeles Center
07:12PM 32.7642 -115.1594 267° West 474 545 35,400 -1,020 Descending Los Angeles Center
07:13PM 32.7556 -115.3500 267° West 482 555 34,200 -1,080 Descending Los Angeles Center
07:14PM 32.7875 -115.5031 284° West 481 554 33,200 -1,200 Descending Los Angeles Center
07:15PM 32.8369 -115.6481 292° West 475 547 31,800 -1,920 Descending Los Angeles Center
07:17PM 32.8831 -115.7911 291° West 465 535 29,300 -2,880 Descending Los Angeles Center
07:18PM 32.9278 -115.9253 292° West 442 509 25,900 -3,240 Descending Los Angeles Center
07:19PM 32.9711 -116.0561 292° West 431 496 22,700 -3,420 Descending Los Angeles Center
07:20PM 33.0208 -116.2094 291° West 417 480 19,000 -3,120 Descending Los Angeles Center
07:21PM 33.0567 -116.3331 289° West 381 438 16,400 -2,520 Descending Los Angeles Center
07:22PM 33.0556 -116.4597 269° West 381 438 13,800 -2,040 Descending Los Angeles Center
07:23PM 33.0994 -116.5467 301° West 349 402 12,300 -1,260 Descending Los Angeles Center
07:24PM 33.1492 -116.6550 299° West 325 374 11,300 -1,440 Descending Los Angeles Center
07:25PM 33.1506 -116.7475 271° West 290 334 9,400 -1,500 Descending Los Angeles Center
07:26PM 33.1531 -116.8383 272° West 279 321 8,300 -1,020 Descending Los Angeles Center
07:27PM 33.1550 -116.9072 272° West 218 251 7,400 -1,140 Descending Los Angeles Center
07:27PM 33.1500 -116.9333 257° West 205 236 6,800 -1,740 Descending Southern California TRACON
07:28PM 33.1500 -117.0167 270° West 205 236 5,000 -1,620 Descending Southern California TRACON
07:29PM 33.1667 -117.0833 287° West 210 242 3,500 -1,260 Descending Southern California TRACON
07:30PM 33.1500 -117.1500 253° West 179 206 2,500 -900 Descending Southern California TRACON
07:31PM 33.1500 -117.2000 270° West 156 180 1,700 -780 Descending Southern California TRACON
07:32PM 33.1333 -117.2333 239° Southwest 128 147 1,000 -720 Descending Southern California TRACON
07:35PM 33.1283 -117.2801 270° West  Level Estimated
07:42PM 33.1283 -117.2801 132° Southeast  Level Estimated